createdAt,value
2019-04-25T00:00:38.823Z,1001.39
2019-04-25T00:01:38.826Z,1001.31
2019-04-25T00:02:38.801Z,1001.37
2019-04-25T00:03:38.800Z,1001.36
2019-04-25T00:04:38.805Z,1001.39
2019-04-25T00:05:38.796Z,1001.30
2019-04-25T00:06:38.773Z,1001.26
2019-04-25T00:07:38.781Z,1001.30
2019-04-25T00:08:38.830Z,1001.33
2019-04-25T00:09:38.997Z,1001.38
2019-04-25T00:10:39.195Z,1001.37
2019-04-25T00:11:39.300Z,1001.43
2019-04-25T00:12:39.399Z,1001.52
2019-04-25T00:13:39.635Z,1001.49
2019-04-25T00:14:39.569Z,1001.40
2019-04-25T00:15:38.660Z,1001.40
2019-04-25T00:16:38.693Z,1001.34
2019-04-25T00:17:38.655Z,1001.38
2019-04-25T00:18:38.699Z,1001.39
2019-04-25T00:19:38.773Z,1001.38
2019-04-25T00:20:38.934Z,1001.40
2019-04-25T00:21:39.234Z,1001.36
2019-04-25T00:22:39.307Z,1001.29
2019-04-25T00:23:39.367Z,1001.39
2019-04-25T00:24:39.627Z,1001.46
2019-04-25T00:25:38.559Z,1001.44
2019-04-25T00:26:38.550Z,1001.50
2019-04-25T00:27:38.532Z,1001.57
2019-04-25T00:28:38.523Z,1001.60
2019-04-25T00:29:38.526Z,1001.59
2019-04-25T00:30:38.511Z,1001.51
2019-04-25T00:31:38.486Z,1001.44
2019-04-25T00:32:38.482Z,1001.47
2019-04-25T00:33:38.467Z,1001.44
2019-04-25T00:34:38.462Z,1001.47
2019-04-25T00:35:38.483Z,1001.46
2019-04-25T00:36:39.122Z,1001.39
2019-04-25T00:37:38.432Z,1001.44
2019-04-25T00:38:38.411Z,1001.53
2019-04-25T00:39:38.413Z,1001.63
2019-04-25T00:40:38.401Z,1001.60
2019-04-25T00:41:38.419Z,1001.53
2019-04-25T00:42:38.371Z,1001.49
2019-04-25T00:43:38.364Z,1001.47
2019-04-25T00:44:38.355Z,1001.40
2019-04-25T00:45:38.344Z,1001.35
2019-04-25T00:46:38.333Z,1001.32
2019-04-25T00:47:38.323Z,1001.37
2019-04-25T00:48:38.314Z,1001.42
2019-04-25T00:49:38.300Z,1001.48
2019-04-25T00:50:38.284Z,1001.49
2019-04-25T00:51:38.285Z,1001.50
2019-04-25T00:52:38.276Z,1001.47
2019-04-25T00:53:38.253Z,1001.46
2019-04-25T00:54:38.239Z,1001.46
2019-04-25T00:55:38.230Z,1001.49
2019-04-25T00:56:38.225Z,1001.41
2019-04-25T00:57:38.221Z,1001.49
2019-04-25T00:58:38.206Z,1001.50
2019-04-25T00:59:38.189Z,1001.58
2019-04-25T01:00:38.177Z,1001.64
2019-04-25T01:01:38.173Z,1001.69
2019-04-25T01:02:38.188Z,1001.68
2019-04-25T01:03:38.159Z,1001.70
2019-04-25T01:04:38.135Z,1001.70
2019-04-25T01:05:38.128Z,1001.72
2019-04-25T01:06:38.112Z,1001.79
2019-04-25T01:07:38.101Z,1001.75
2019-04-25T01:08:38.104Z,1001.79
2019-04-25T01:09:38.082Z,1001.72
2019-04-25T01:10:38.079Z,1001.77
2019-04-25T01:11:38.060Z,1001.79
2019-04-25T01:12:38.054Z,1001.76
2019-04-25T01:13:38.049Z,1001.79
2019-04-25T01:14:38.030Z,1001.79
2019-04-25T01:15:38.020Z,1001.84
2019-04-25T01:16:38.008Z,1001.82
2019-04-25T01:17:37.996Z,1001.87
2019-04-25T01:18:37.983Z,1001.87
2019-04-25T01:19:37.995Z,1001.91
2019-04-25T01:20:37.962Z,1001.90
2019-04-25T01:21:37.952Z,1001.92
2019-04-25T01:22:37.956Z,1001.93
2019-04-25T01:23:37.935Z,1001.93
2019-04-25T01:24:37.938Z,1001.87
2019-04-25T01:25:42.256Z,1001.90
2019-04-25T01:26:37.916Z,1001.92
2019-04-25T01:27:37.894Z,1001.88
2019-04-25T01:28:37.883Z,1001.87
2019-04-25T01:29:37.883Z,1001.87
2019-04-25T01:30:37.860Z,1001.84
2019-04-25T01:31:37.850Z,1001.85
2019-04-25T01:32:37.843Z,1001.80
2019-04-25T01:33:37.826Z,1001.80
2019-04-25T01:34:37.819Z,1001.79
2019-04-25T01:35:37.810Z,1001.80
2019-04-25T01:36:37.809Z,1001.84
2019-04-25T01:37:37.781Z,1001.87
2019-04-25T01:38:37.771Z,1001.84
2019-04-25T01:39:37.761Z,1001.83
2019-04-25T01:40:37.751Z,1001.83
2019-04-25T01:41:37.751Z,1001.78
2019-04-25T01:42:37.736Z,1001.82
2019-04-25T01:43:37.726Z,1001.80
2019-04-25T01:44:37.705Z,1001.76
2019-04-25T01:45:37.700Z,1001.80
2019-04-25T01:46:37.735Z,1001.85
2019-04-25T01:47:37.681Z,1001.87
2019-04-25T01:48:37.670Z,1001.88
2019-04-25T01:49:37.660Z,1001.89
2019-04-25T01:50:37.650Z,1001.90
2019-04-25T01:51:37.657Z,1001.82
2019-04-25T01:52:37.627Z,1001.77
2019-04-25T01:53:37.610Z,1001.73
2019-04-25T01:54:37.606Z,1001.66
2019-04-25T01:55:37.591Z,1001.64
2019-04-25T01:56:37.584Z,1001.65
2019-04-25T01:57:37.577Z,1001.61
2019-04-25T01:58:37.558Z,1001.71
2019-04-25T01:59:37.546Z,1001.75
2019-04-25T02:00:37.540Z,1001.78
2019-04-25T02:01:37.547Z,1001.74
2019-04-25T02:02:37.553Z,1001.79
2019-04-25T02:03:37.509Z,1001.72
2019-04-25T02:04:37.500Z,1001.69
2019-04-25T02:05:37.487Z,1001.61
2019-04-25T02:06:37.483Z,1001.60
2019-04-25T02:07:37.467Z,1001.65
2019-04-25T02:08:37.475Z,1001.63
2019-04-25T02:09:37.446Z,1001.71
2019-04-25T02:10:37.429Z,1001.78
2019-04-25T02:11:37.423Z,1001.84
2019-04-25T02:12:37.413Z,1001.97
2019-04-25T02:13:37.405Z,1002.07
2019-04-25T02:14:37.401Z,1002.15
2019-04-25T02:15:37.380Z,1002.15
2019-04-25T02:16:37.375Z,1002.19
2019-04-25T02:17:37.354Z,1002.31
2019-04-25T02:18:37.348Z,1002.40
2019-04-25T02:19:37.345Z,1002.41
2019-04-25T02:20:39.006Z,1002.42
2019-04-25T02:21:37.320Z,1002.39
2019-04-25T02:22:37.306Z,1002.42
2019-04-25T02:23:37.303Z,1002.38
2019-04-25T02:24:37.285Z,1002.42
2019-04-25T02:25:37.282Z,1002.46
2019-04-25T02:26:37.263Z,1002.49
2019-04-25T02:27:37.252Z,1002.52
2019-04-25T02:28:37.236Z,1002.62
2019-04-25T02:29:37.239Z,1002.67
2019-04-25T02:30:37.223Z,1002.68
2019-04-25T02:31:37.209Z,1002.73
2019-04-25T02:32:37.422Z,1002.80
2019-04-25T02:33:37.196Z,1002.81
2019-04-25T02:34:37.174Z,1002.84
2019-04-25T02:35:37.179Z,1002.84
2019-04-25T02:36:37.163Z,1002.84
2019-04-25T02:37:37.142Z,1002.87
2019-04-25T02:38:37.131Z,1002.84
2019-04-25T02:39:37.618Z,1002.86
2019-04-25T02:40:37.112Z,1002.87
2019-04-25T02:41:37.105Z,1002.86
2019-04-25T02:42:37.118Z,1002.89
2019-04-25T02:43:37.080Z,1002.86
2019-04-25T02:44:37.070Z,1002.86
2019-04-25T02:45:37.068Z,1002.85
2019-04-25T02:46:37.389Z,1002.84
2019-04-25T02:47:37.040Z,1002.81
2019-04-25T02:48:37.049Z,1002.79
2019-04-25T02:49:39.695Z,1002.79
2019-04-25T02:50:37.001Z,1002.80
2019-04-25T02:51:36.996Z,1002.77
2019-04-25T02:52:36.983Z,1002.69
2019-04-25T02:53:37.560Z,1002.71
2019-04-25T02:54:36.967Z,1002.70
2019-04-25T02:55:37.780Z,1002.66
2019-04-25T02:56:38.929Z,1002.74
2019-04-25T02:57:36.927Z,1002.76
2019-04-25T02:58:36.918Z,1002.78
2019-04-25T02:59:37.317Z,1002.81
2019-04-25T03:00:51.787Z,1002.79
2019-04-25T03:01:37.886Z,1002.78
2019-04-25T03:02:37.176Z,1002.77
2019-04-25T03:03:36.875Z,1002.79
2019-04-25T03:04:36.875Z,1002.78
2019-04-25T03:05:36.868Z,1002.78
2019-04-25T03:06:36.855Z,1002.81
2019-04-25T03:07:36.892Z,1002.82
2019-04-25T03:08:36.813Z,1002.88
2019-04-25T03:09:36.830Z,1002.90
2019-04-25T03:10:36.784Z,1002.93
2019-04-25T03:11:36.780Z,1002.94
2019-04-25T03:12:37.017Z,1002.95
2019-04-25T03:13:36.754Z,1002.92
2019-04-25T03:14:36.747Z,1002.87
2019-04-25T03:15:36.767Z,1002.89
2019-04-25T03:16:36.724Z,1002.92
2019-04-25T03:17:36.716Z,1002.97
2019-04-25T03:18:36.715Z,1003.05
2019-04-25T03:19:36.693Z,1003.08
2019-04-25T03:20:36.699Z,1003.08
2019-04-25T03:21:36.687Z,1003.07
2019-04-25T03:22:36.660Z,1003.04
2019-04-25T03:23:36.655Z,1003.06
2019-04-25T03:24:36.638Z,1002.98
2019-04-25T03:25:36.621Z,1003.01
2019-04-25T03:26:40.433Z,1003.03
2019-04-25T03:27:36.606Z,1003.01
2019-04-25T03:28:36.589Z,1003.03
2019-04-25T03:29:36.578Z,1003.06
2019-04-25T03:30:36.578Z,1003.06
2019-04-25T03:31:36.573Z,1003.05
2019-04-25T03:32:36.570Z,1003.06
2019-04-25T03:33:38.344Z,1003.11
2019-04-25T03:34:36.532Z,1003.12
2019-04-25T03:35:36.513Z,1003.13
2019-04-25T03:36:36.525Z,1003.15
2019-04-25T03:37:36.499Z,1003.20
2019-04-25T03:38:36.513Z,1003.18
2019-04-25T03:39:36.473Z,1003.21
2019-04-25T03:40:36.460Z,1003.21
2019-04-25T03:41:36.450Z,1003.27
2019-04-25T03:42:36.448Z,1003.29
2019-04-25T03:43:36.434Z,1003.31
2019-04-25T03:44:36.414Z,1003.26
2019-04-25T03:45:36.404Z,1003.27
2019-04-25T03:46:36.400Z,1003.29
2019-04-25T03:47:36.393Z,1003.34
2019-04-25T03:48:37.012Z,1003.36
2019-04-25T03:49:36.361Z,1003.36
2019-04-25T03:50:36.357Z,1003.40
2019-04-25T03:51:36.345Z,1003.45
2019-04-25T03:52:36.336Z,1003.44
2019-04-25T03:53:36.375Z,1003.46
2019-04-25T03:54:36.312Z,1003.52
2019-04-25T03:55:36.302Z,1003.59
2019-04-25T03:56:36.289Z,1003.57
2019-04-25T03:57:36.281Z,1003.61
2019-04-25T03:58:36.276Z,1003.66
2019-04-25T03:59:36.274Z,1003.72
2019-04-25T04:00:36.497Z,1003.71
2019-04-25T04:01:36.230Z,1003.73
2019-04-25T04:02:36.225Z,1003.82
2019-04-25T04:03:36.208Z,1003.80
2019-04-25T04:04:36.203Z,1003.80
2019-04-25T04:05:36.203Z,1003.83
2019-04-25T04:06:36.191Z,1003.87
2019-04-25T04:07:36.184Z,1003.93
2019-04-25T04:08:36.158Z,1003.93
2019-04-25T04:09:36.150Z,1004.00
2019-04-25T04:10:36.180Z,1004.05
2019-04-25T04:11:36.127Z,1004.11
2019-04-25T04:12:36.144Z,1004.16
2019-04-25T04:13:36.106Z,1004.21
2019-04-25T04:14:36.087Z,1004.22
2019-04-25T04:15:36.083Z,1004.26
2019-04-25T04:16:36.090Z,1004.26
2019-04-25T04:17:36.062Z,1004.27
2019-04-25T04:18:36.048Z,1004.32
2019-04-25T04:19:36.034Z,1004.30
2019-04-25T04:20:36.028Z,1004.32
2019-04-25T04:21:36.022Z,1004.31
2019-04-25T04:22:36.029Z,1004.30
2019-04-25T04:23:36.000Z,1004.30
2019-04-25T04:24:35.983Z,1004.33
2019-04-25T04:25:35.968Z,1004.35
2019-04-25T04:26:35.993Z,1004.37
2019-04-25T04:27:35.946Z,1004.36
2019-04-25T04:28:35.941Z,1004.41
2019-04-25T04:29:35.929Z,1004.40
2019-04-25T04:30:35.918Z,1004.43
2019-04-25T04:31:35.905Z,1004.42
2019-04-25T04:32:35.907Z,1004.47
2019-04-25T04:33:35.905Z,1004.45
2019-04-25T04:34:35.878Z,1004.48
2019-04-25T04:35:35.872Z,1004.45
2019-04-25T04:36:35.854Z,1004.47
2019-04-25T04:37:35.839Z,1004.48
2019-04-25T04:38:35.920Z,1004.48
2019-04-25T04:39:35.864Z,1004.50
2019-04-25T04:40:36.195Z,1004.53
2019-04-25T04:41:35.801Z,1004.53
2019-04-25T04:42:35.791Z,1004.55
2019-04-25T04:43:35.779Z,1004.64
2019-04-25T04:44:35.770Z,1004.64
2019-04-25T04:45:35.812Z,1004.68
2019-04-25T04:46:35.745Z,1004.72
2019-04-25T04:47:35.734Z,1004.78
2019-04-25T04:48:35.721Z,1004.77
2019-04-25T04:49:35.714Z,1004.77
2019-04-25T04:50:35.706Z,1004.81
2019-04-25T04:51:35.700Z,1004.77
2019-04-25T04:52:35.688Z,1004.80
2019-04-25T04:53:35.884Z,1004.80
2019-04-25T04:54:35.658Z,1004.83
2019-04-25T04:55:35.660Z,1004.82
2019-04-25T04:56:35.645Z,1004.82
2019-04-25T04:57:36.256Z,1004.81
2019-04-25T04:58:35.621Z,1004.84
2019-04-25T04:59:35.607Z,1004.86
2019-04-25T05:00:35.606Z,1004.83
2019-04-25T05:01:35.607Z,1004.84
2019-04-25T05:02:35.583Z,1004.89
2019-04-25T05:03:35.559Z,1004.91
2019-04-25T05:04:35.555Z,1004.91
2019-04-25T05:05:35.543Z,1004.92
2019-04-25T05:06:35.528Z,1004.93
2019-04-25T05:07:35.527Z,1004.97
2019-04-25T05:08:35.509Z,1005.05
2019-04-25T05:09:35.503Z,1005.04
2019-04-25T05:10:35.488Z,1005.05
2019-04-25T05:11:35.482Z,1005.06
2019-04-25T05:12:35.477Z,1005.11
2019-04-25T05:13:35.470Z,1005.09
2019-04-25T05:14:35.447Z,1005.10
2019-04-25T05:15:35.443Z,1005.16
2019-04-25T05:16:35.429Z,1005.21
2019-04-25T05:17:35.417Z,1005.17
2019-04-25T05:18:39.587Z,1005.16
2019-04-25T05:19:35.393Z,1005.18
2019-04-25T05:20:35.599Z,1005.16
2019-04-25T05:21:35.385Z,1005.16
2019-04-25T05:22:35.359Z,1005.18
2019-04-25T05:23:35.370Z,1005.20
2019-04-25T05:24:35.335Z,1005.23
2019-04-25T05:25:35.332Z,1005.27
2019-04-25T05:26:35.325Z,1005.33
2019-04-25T05:27:46.348Z,1005.37
2019-04-25T05:28:36.318Z,1005.36
2019-04-25T05:29:35.280Z,1005.39
2019-04-25T05:30:35.275Z,1005.40
2019-04-25T05:31:35.269Z,1005.47
2019-04-25T05:32:35.275Z,1005.48
2019-04-25T05:33:35.241Z,1005.40
2019-04-25T05:34:35.232Z,1005.42
2019-04-25T05:35:35.213Z,1005.48
2019-04-25T05:36:35.203Z,1005.53
2019-04-25T05:37:35.206Z,1005.60
2019-04-25T05:38:35.186Z,1005.62
2019-04-25T05:39:35.206Z,1005.60
2019-04-25T05:40:35.161Z,1005.65
2019-04-25T05:41:35.964Z,1005.66
2019-04-25T05:42:35.144Z,1005.71
2019-04-25T05:43:35.131Z,1005.66
2019-04-25T05:44:35.123Z,1005.71
2019-04-25T05:45:35.128Z,1005.71
2019-04-25T05:46:35.101Z,1005.68
2019-04-25T05:47:35.084Z,1005.71
2019-04-25T05:48:35.076Z,1005.70
2019-04-25T05:49:35.065Z,1005.73
2019-04-25T05:50:35.080Z,1005.72
2019-04-25T05:51:35.047Z,1005.67
2019-04-25T05:52:35.031Z,1005.71
2019-04-25T05:53:35.018Z,1005.65
2019-04-25T05:54:35.016Z,1005.65
2019-04-25T05:55:35.010Z,1005.69
2019-04-25T05:56:35.005Z,1005.65
2019-04-25T05:57:45.459Z,1005.67
2019-04-25T05:58:35.965Z,1005.67
2019-04-25T05:59:34.958Z,1005.69
2019-04-25T06:00:34.945Z,1005.63
2019-04-25T06:01:35.802Z,1005.69
2019-04-25T06:02:34.941Z,1005.71
2019-04-25T06:03:34.915Z,1005.76
2019-04-25T06:04:34.906Z,1005.82
2019-04-25T06:05:34.891Z,1005.87
2019-04-25T06:06:36.731Z,1005.91
2019-04-25T06:07:34.875Z,1005.93
2019-04-25T06:08:34.882Z,1005.99
2019-04-25T06:09:35.833Z,1005.94
2019-04-25T06:10:34.838Z,1005.96
2019-04-25T06:11:34.827Z,1005.92
2019-04-25T06:12:34.826Z,1005.95
2019-04-25T06:13:34.806Z,1005.94
2019-04-25T06:14:34.802Z,1005.91
2019-04-25T06:15:34.792Z,1005.92
2019-04-25T06:16:34.778Z,1005.95
2019-04-25T06:17:34.770Z,1005.94
2019-04-25T06:18:34.764Z,1005.96
2019-04-25T06:19:34.754Z,1005.94
2019-04-25T06:20:34.735Z,1005.99
2019-04-25T06:21:34.718Z,1006.01
2019-04-25T06:22:34.724Z,1006.04
2019-04-25T06:23:34.711Z,1006.08
2019-04-25T06:24:34.704Z,1006.08
2019-04-25T06:25:39.451Z,1006.10
2019-04-25T06:26:39.701Z,1006.16
2019-04-25T06:27:35.196Z,1006.12
2019-04-25T06:28:34.696Z,1006.15
2019-04-25T06:29:34.932Z,1006.21
2019-04-25T06:30:35.259Z,1006.18
2019-04-25T06:31:34.615Z,1006.27
2019-04-25T06:32:35.474Z,1006.19
2019-04-25T06:33:34.644Z,1006.18
2019-04-25T06:34:36.308Z,1006.20
2019-04-25T06:35:35.874Z,1006.20
2019-04-25T06:36:35.359Z,1006.28
2019-04-25T06:37:35.128Z,1006.22
2019-04-25T06:38:34.542Z,1006.19
2019-04-25T06:39:34.543Z,1006.22
2019-04-25T06:40:34.656Z,1006.21
2019-04-25T06:41:35.381Z,1006.22
2019-04-25T06:42:34.722Z,1006.25
2019-04-25T06:43:34.489Z,1006.26
2019-04-25T06:44:34.696Z,1006.31
2019-04-25T06:45:34.604Z,1006.33
2019-04-25T06:46:34.469Z,1006.27
2019-04-25T06:47:34.469Z,1006.27
2019-04-25T06:48:35.152Z,1006.27
2019-04-25T06:49:36.518Z,1006.31
2019-04-25T06:50:35.410Z,1006.30
2019-04-25T06:51:34.405Z,1006.33
2019-04-25T06:52:35.404Z,1006.37
2019-04-25T06:53:34.734Z,1006.38
2019-04-25T06:54:35.278Z,1006.29
2019-04-25T06:55:34.420Z,1006.33
2019-04-25T06:56:34.527Z,1006.37
2019-04-25T06:57:34.341Z,1006.31
2019-04-25T06:58:34.347Z,1006.36
2019-04-25T06:59:34.564Z,1006.29
2019-04-25T07:00:40.915Z,1006.31
2019-04-25T07:01:35.296Z,1006.29
2019-04-25T07:02:35.167Z,1006.33
2019-04-25T07:03:35.596Z,1006.34
2019-04-25T07:04:34.871Z,1006.38
2019-04-25T07:05:40.182Z,1006.46
2019-04-25T07:06:35.237Z,1006.45
2019-04-25T07:07:35.217Z,1006.45
2019-04-25T07:08:35.378Z,1006.38
2019-04-25T07:09:34.930Z,1006.44
2019-04-25T07:10:34.976Z,1006.45
2019-04-25T07:11:34.936Z,1006.47
2019-04-25T07:12:34.845Z,1006.52
2019-04-25T07:13:38.304Z,1006.52
2019-04-25T07:14:36.927Z,1006.49
2019-04-25T07:15:35.252Z,1006.55
2019-04-25T07:16:34.686Z,1006.59
2019-04-25T07:17:35.015Z,1006.63
2019-04-25T07:18:36.296Z,1006.59
2019-04-25T07:19:35.493Z,1006.64
2019-04-25T07:20:34.629Z,1006.56
2019-04-25T07:21:35.413Z,1006.62
2019-04-25T07:22:35.416Z,1006.64
2019-04-25T07:23:34.611Z,1006.72
2019-04-25T07:24:35.298Z,1006.73
2019-04-25T07:25:35.393Z,1006.65
2019-04-25T07:26:37.718Z,1006.70
2019-04-25T07:27:35.624Z,1006.64
2019-04-25T07:28:35.642Z,1006.69
2019-04-25T07:29:34.633Z,1006.66
2019-04-25T07:30:48.629Z,1006.74
2019-04-25T07:31:35.699Z,1006.70
2019-04-25T07:32:34.869Z,1006.76
2019-04-25T07:33:35.033Z,1006.74
2019-04-25T07:34:35.048Z,1006.76
2019-04-25T07:35:34.691Z,1006.83
2019-04-25T07:36:35.118Z,1006.82
2019-04-25T07:37:36.113Z,1006.81
2019-04-25T07:38:34.939Z,1006.83
2019-04-25T07:39:34.463Z,1006.87
2019-04-25T07:40:34.952Z,1006.79
2019-04-25T07:41:34.286Z,1006.86
2019-04-25T07:42:35.163Z,1006.85
2019-04-25T07:43:34.888Z,1006.84
2019-04-25T07:44:48.895Z,1006.81
2019-04-25T07:45:36.152Z,1006.85
2019-04-25T07:46:37.237Z,1006.89
2019-04-25T07:47:35.481Z,1006.87
2019-04-25T07:48:36.756Z,1006.89
2019-04-25T07:49:34.831Z,1006.93
2019-04-25T07:50:34.346Z,1006.90
2019-04-25T07:51:34.602Z,1006.92
2019-04-25T07:52:34.867Z,1006.98
2019-04-25T07:53:34.823Z,1007.00
2019-04-25T07:54:34.393Z,1006.99
2019-04-25T07:55:36.312Z,1007.00
2019-04-25T07:56:35.201Z,1006.97
2019-04-25T07:57:34.899Z,1006.96
2019-04-25T07:58:44.948Z,1006.96
2019-04-25T07:59:35.987Z,1006.95
2019-04-25T08:00:35.180Z,1006.96
2019-04-25T08:01:36.623Z,1007.01
2019-04-25T08:02:34.178Z,1007.03
2019-04-25T08:03:34.387Z,1007.03
2019-04-25T08:04:35.688Z,1006.99
2019-04-25T08:05:35.326Z,1007.01
2019-04-25T08:06:34.549Z,1007.01
2019-04-25T08:07:34.837Z,1007.04
2019-04-25T08:08:34.683Z,1006.99
2019-04-25T08:09:35.248Z,1007.04
2019-04-25T08:10:34.649Z,1007.03
2019-04-25T08:11:34.799Z,1007.07
2019-04-25T08:12:34.678Z,1007.02
2019-04-25T08:13:34.280Z,1006.98
2019-04-25T08:14:34.155Z,1007.03
2019-04-25T08:15:33.912Z,1007.05
2019-04-25T08:16:34.419Z,1007.05
2019-04-25T08:17:34.650Z,1007.01
2019-04-25T08:18:35.083Z,1007.03
2019-04-25T08:19:34.377Z,1007.06
2019-04-25T08:20:34.757Z,1007.04
2019-04-25T08:21:34.413Z,1007.12
2019-04-25T08:22:34.471Z,1007.08
2019-04-25T08:23:36.721Z,1007.11
2019-04-25T08:24:34.893Z,1007.11
2019-04-25T08:25:36.245Z,1007.07
2019-04-25T08:26:35.371Z,1007.14
2019-04-25T08:27:34.348Z,1007.14
2019-04-25T08:28:34.451Z,1007.18
2019-04-25T08:29:37.656Z,1007.11
2019-04-25T08:30:35.654Z,1007.14
2019-04-25T08:31:34.888Z,1007.15
2019-04-25T08:32:35.203Z,1007.14
2019-04-25T08:33:34.559Z,1007.21
2019-04-25T08:34:34.808Z,1007.18
2019-04-25T08:35:34.211Z,1007.22
2019-04-25T08:36:36.668Z,1007.21
2019-04-25T08:37:35.399Z,1007.16
2019-04-25T08:38:34.751Z,1007.19
2019-04-25T08:39:34.059Z,1007.20
2019-04-25T08:40:35.810Z,1007.14
2019-04-25T08:41:34.787Z,1007.18
2019-04-25T08:42:35.410Z,1007.15
2019-04-25T08:43:36.352Z,1007.12
2019-04-25T08:44:34.800Z,1007.14
2019-04-25T08:45:35.267Z,1007.12
2019-04-25T08:46:35.827Z,1007.16
2019-04-25T08:47:34.886Z,1007.18
2019-04-25T08:48:34.523Z,1007.18
2019-04-25T08:49:34.745Z,1007.20
2019-04-25T08:50:37.106Z,1007.20
2019-04-25T08:51:34.919Z,1007.27
2019-04-25T08:52:35.171Z,1007.24
2019-04-25T08:53:35.147Z,1007.31
2019-04-25T08:54:35.377Z,1007.29
2019-04-25T08:55:34.936Z,1007.31
2019-04-25T08:56:34.933Z,1007.29
2019-04-25T08:57:34.119Z,1007.34
2019-04-25T08:58:35.288Z,1007.37
2019-04-25T08:59:40.070Z,1007.34
2019-04-25T09:00:35.720Z,1007.36
2019-04-25T09:01:36.550Z,1007.39
2019-04-25T09:02:36.045Z,1007.46
2019-04-25T09:03:34.666Z,1007.42
2019-04-25T09:04:34.791Z,1007.43
2019-04-25T09:05:35.181Z,1007.41
2019-04-25T09:06:35.055Z,1007.45
2019-04-25T09:07:35.444Z,1007.44
2019-04-25T09:08:35.615Z,1007.46
2019-04-25T09:09:35.357Z,1007.42
2019-04-25T09:10:35.794Z,1007.47
2019-04-25T09:11:34.807Z,1007.48
2019-04-25T09:12:35.601Z,1007.55
2019-04-25T09:13:35.390Z,1007.45
2019-04-25T09:14:34.902Z,1007.43
2019-04-25T09:15:35.651Z,1007.39
2019-04-25T09:16:34.413Z,1007.39
2019-04-25T09:17:35.477Z,1007.44
2019-04-25T09:18:35.730Z,1007.40
2019-04-25T09:19:33.607Z,1007.41
2019-04-25T09:20:34.870Z,1007.40
2019-04-25T09:21:35.278Z,1007.33
2019-04-25T09:22:36.103Z,1007.38
2019-04-25T09:23:34.309Z,1007.34
2019-04-25T09:24:33.494Z,1007.29
2019-04-25T09:25:34.519Z,1007.32
2019-04-25T09:26:34.919Z,1007.28
2019-04-25T09:27:34.350Z,1007.29
2019-04-25T09:28:35.058Z,1007.32
2019-04-25T09:29:34.231Z,1007.34
2019-04-25T09:30:34.923Z,1007.39
2019-04-25T09:31:34.572Z,1007.40
2019-04-25T09:32:33.804Z,1007.37
2019-04-25T09:33:35.166Z,1007.36
2019-04-25T09:34:33.569Z,1007.36
2019-04-25T09:35:33.535Z,1007.39
2019-04-25T09:36:33.598Z,1007.42
2019-04-25T09:37:33.568Z,1007.38
2019-04-25T09:38:34.795Z,1007.35
2019-04-25T09:39:33.840Z,1007.37
2019-04-25T09:40:34.195Z,1007.37
2019-04-25T09:41:33.586Z,1007.35
2019-04-25T09:42:33.815Z,1007.39
2019-04-25T09:43:33.509Z,1007.36
2019-04-25T09:44:32.624Z,1007.29
2019-04-25T09:45:33.493Z,1007.33
2019-04-25T09:46:34.090Z,1007.38
2019-04-25T09:47:33.546Z,1007.37
2019-04-25T09:48:34.337Z,1007.41
2019-04-25T09:49:33.902Z,1007.44
2019-04-25T09:50:33.999Z,1007.41
2019-04-25T09:51:33.583Z,1007.47
2019-04-25T09:52:34.040Z,1007.48
2019-04-25T09:53:34.826Z,1007.49
2019-04-25T09:54:33.402Z,1007.40
2019-04-25T09:55:33.997Z,1007.39
2019-04-25T09:56:33.859Z,1007.36
2019-04-25T09:57:33.495Z,1007.38
2019-04-25T09:58:33.824Z,1007.40
2019-04-25T09:59:33.218Z,1007.32
2019-04-25T10:00:33.441Z,1007.25
2019-04-25T10:01:33.873Z,1007.28
2019-04-25T10:02:32.446Z,1007.24
2019-04-25T10:03:33.341Z,1007.25
2019-04-25T10:04:34.464Z,1007.31
2019-04-25T10:05:33.865Z,1007.26
2019-04-25T10:06:33.289Z,1007.24
2019-04-25T10:07:32.399Z,1007.26
2019-04-25T10:08:32.388Z,1007.28
2019-04-25T10:09:33.762Z,1007.26
2019-04-25T10:10:32.366Z,1007.23
2019-04-25T10:11:33.510Z,1007.13
2019-04-25T10:12:41.389Z,1007.19
2019-04-25T10:13:33.750Z,1007.25
2019-04-25T10:14:39.383Z,1007.21
2019-04-25T10:15:39.962Z,1007.25
2019-04-25T10:16:40.233Z,1007.22
2019-04-25T10:17:41.178Z,1007.20
2019-04-25T10:18:41.253Z,1007.21
2019-04-25T10:19:39.336Z,1007.27
2019-04-25T10:20:33.372Z,1007.22
2019-04-25T10:21:40.159Z,1007.21
2019-04-25T10:22:40.335Z,1007.19
2019-04-25T10:23:39.838Z,1007.14
2019-04-25T10:24:32.250Z,1007.17
2019-04-25T10:25:33.421Z,1007.19
2019-04-25T10:26:39.829Z,1007.21
2019-04-25T10:27:32.202Z,1007.22
2019-04-25T10:28:33.564Z,1007.23
2019-04-25T10:29:41.707Z,1007.27
2019-04-25T10:30:34.317Z,1007.29
2019-04-25T10:31:33.822Z,1007.31
2019-04-25T10:32:33.561Z,1007.29
2019-04-25T10:33:32.153Z,1007.24
2019-04-25T10:34:33.333Z,1007.23
2019-04-25T10:35:40.874Z,1007.23
2019-04-25T10:36:33.669Z,1007.19
2019-04-25T10:37:33.928Z,1007.20
2019-04-25T10:38:34.835Z,1007.19
2019-04-25T10:39:33.837Z,1007.24
2019-04-25T10:40:33.708Z,1007.24
2019-04-25T10:41:35.393Z,1007.26
2019-04-25T10:42:32.067Z,1007.21
2019-04-25T10:43:32.097Z,1007.14
2019-04-25T10:44:33.694Z,1007.14
2019-04-25T10:45:32.035Z,1007.10
2019-04-25T10:46:33.925Z,1007.05
2019-04-25T10:47:33.465Z,1007.03
2019-04-25T10:48:32.013Z,1007.03
2019-04-25T10:49:32.013Z,1007.02
2019-04-25T10:50:32.012Z,1007.00
2019-04-25T10:51:31.978Z,1006.96
2019-04-25T10:52:33.703Z,1006.96
2019-04-25T10:53:33.728Z,1006.96
2019-04-25T10:54:34.964Z,1006.94
2019-04-25T10:55:31.946Z,1006.94
2019-04-25T10:56:33.478Z,1006.95
2019-04-25T10:57:31.923Z,1006.95
2019-04-25T10:58:33.466Z,1006.96
2019-04-25T10:59:31.922Z,1006.95
2019-04-25T11:00:32.077Z,1006.97
2019-04-25T11:01:33.756Z,1006.96
2019-04-25T11:02:33.786Z,1006.91
2019-04-25T11:03:33.411Z,1006.88
2019-04-25T11:04:31.858Z,1006.89
2019-04-25T11:05:31.855Z,1006.90
2019-04-25T11:06:33.462Z,1006.91
2019-04-25T11:07:31.835Z,1006.86
2019-04-25T11:08:31.831Z,1006.85
2019-04-25T11:09:31.810Z,1006.85
2019-04-25T11:10:31.843Z,1006.90
2019-04-25T11:11:31.791Z,1006.91
2019-04-25T11:12:33.659Z,1006.90
2019-04-25T11:13:31.774Z,1006.87
2019-04-25T11:14:31.779Z,1006.89
2019-04-25T11:15:31.769Z,1006.88
2019-04-25T11:16:33.193Z,1006.90
2019-04-25T11:17:31.751Z,1006.85
2019-04-25T11:18:31.732Z,1006.84
2019-04-25T11:19:31.719Z,1006.86
2019-04-25T11:20:31.727Z,1006.88
2019-04-25T11:21:33.305Z,1006.86
2019-04-25T11:22:31.719Z,1006.88
2019-04-25T11:23:31.691Z,1006.90
2019-04-25T11:24:31.674Z,1006.94
2019-04-25T11:25:31.663Z,1006.96
2019-04-25T11:26:34.426Z,1007.00
2019-04-25T11:27:31.668Z,1007.03
2019-04-25T11:28:31.663Z,1006.99
2019-04-25T11:29:31.626Z,1007.00
2019-04-25T11:30:31.619Z,1006.92
2019-04-25T11:31:31.662Z,1006.90
2019-04-25T11:32:31.609Z,1006.89
2019-04-25T11:33:31.594Z,1006.93
2019-04-25T11:34:31.599Z,1006.96
2019-04-25T11:35:31.583Z,1006.95
2019-04-25T11:36:31.574Z,1006.94
2019-04-25T11:37:31.559Z,1006.95
2019-04-25T11:38:31.561Z,1006.96
2019-04-25T11:39:31.548Z,1006.98
2019-04-25T11:40:31.538Z,1007.01
2019-04-25T11:41:31.519Z,1006.97
2019-04-25T11:42:31.509Z,1006.91
2019-04-25T11:43:31.507Z,1006.90
2019-04-25T11:44:31.504Z,1006.96
2019-04-25T11:45:31.489Z,1006.97
2019-04-25T11:46:32.967Z,1006.95
2019-04-25T11:47:31.473Z,1006.90
2019-04-25T11:48:31.459Z,1006.90
2019-04-25T11:49:31.487Z,1006.89
2019-04-25T11:50:31.443Z,1006.89
2019-04-25T11:51:31.437Z,1006.93
2019-04-25T11:52:31.422Z,1006.89
2019-04-25T11:53:31.432Z,1006.86
2019-04-25T11:54:31.400Z,1006.86
2019-04-25T11:55:31.426Z,1006.94
2019-04-25T11:56:31.388Z,1006.91
2019-04-25T11:57:31.373Z,1006.88
2019-04-25T11:58:31.373Z,1006.90
2019-04-25T11:59:31.376Z,1006.88
2019-04-25T12:00:31.363Z,1006.90
2019-04-25T12:01:31.354Z,1006.90
2019-04-25T12:02:31.335Z,1006.91
2019-04-25T12:03:31.323Z,1006.90
2019-04-25T12:04:31.315Z,1006.92
2019-04-25T12:05:31.304Z,1006.91